KBHM/BHM METAR and TAF weather

Enter ICAO airport designator
Station Type Date Time Source
KBHM METAR 2019/12/11 14:53 UTC NOAA

KBHM 111453Z 02009G14KT 10SM FEW250 02/M02 A3053 RMK AO2 SLP342 T00221022 51025


Station Type Date Time Source
KBHM Decoded METAR 2019/12/11 14:53 UTC NOAA

BIRMINGHAM INT'L AIRPORT, AL, United States (KBHM) 33-34N 086-45W 197M
Dec 11, 2019 - 09:53 AM EST / 2019.12.11 1453 UTC
Wind: from the NNE (020 degrees) at 10 MPH (9 KT) gusting to 16 MPH (14 KT):0
Visibility: 10 mile(s):0
Sky conditions: mostly clear
Temperature: 36.0 F (2.2 C)
Dew Point: 28.0 F (-2.2 C)
Relative Humidity: 72%
Pressure (altimeter): 30.53 in. Hg (1033 hPa)
Pressure tendency: 0.07 inches (2.5 hPa) higher than three hours ago
ob: KBHM 111453Z 02009G14KT 10SM FEW250 02/M02 A3053 RMK AO2 SLP342 T00221022 51025
cycle: 15

Station Type Date Time Source
KBHM TAF 2019/12/11 12:30 UTC NOAA

TAF KBHM 111129Z 1112/1212 36008KT P6SM SKC
FM111600 02010G16KT P6SM SKC
FM112200 03003KT P6SM SKC

Example: see airport list